City of Colorado Springs Municipal Airport
KCOS : now visible

Airfield :











YOU CAN JOIN US ON...

 
LOGIN :

Register | Disclaimer

   EN    FR    IT 

 









Legend :    VFR   Marginal VFR   IFR   Intensive IFR   Very Intensive IFR
Visi :
Ceiling :
>= 8 km
>= 3000ft
5 to 8 km
1000 to 3000 ft
1500m to 5 km
500 to 1000 ft
800 to 1500m
200 to 500 ft
< 800m
< 200 ft
Symbols :   Thunderstorms  Fog  Heavy snow  Heavy precipitations  Wind > 20 kt






- Airport Elevation : 6187 ft
- IATA code : COS


KCOS - City of Colorado Springs Municipal

CURRENT METAR :
  • 191554Z 01007KT 10SM FEW015 BKN170 BKN220 M06/M09 A3017 RMK AO2 SLP273 T10561094

EXPIRED METARs :
  • 191534Z 36006KT 10SM SCT015 BKN220 M04/M09 A3017 RMK AO2 T10441089
  • 191454Z 36006KT 9SM BKN015 M05/M09 A3015 RMK AO2 SLP265 T10501089 53010
  • 191354Z 02013KT 9SM BKN012 M06/M09 A3014 RMK AO2 SLP262 T10561089

TAF KCOS
Valid from the 19 at 12:00 until the 20 at 12:00 UTC


191128Z 1912/2012 VRB05KT P6SM OVC009
FM191600 30006KT 5SM BR SCT009 BKN015
FM191800 01008KT P6SM SCT025 BKN100
FM191900 02012G22KT P6SM VCSH SCT030 BKN060
FM200000 01012G22KT P6SM VCSH SCT010 BKN025
TEMPO 2000/2003 3SM -SN BR OVC008
FM200300 02012G22KT 1SM -SN BR OVC015



MET'MAP, your aeronautical weather chart ! - Copyright ORBIFLY December 2007 - Disclaimer

ORBIFLY MET'MAP TEAM :

Programming & Development : Alexandra Zaïnal
Concept & original design : Baudouin d'Aumeries
Assistance for programming : Marc-Olivier Méhu
Technical & hardware support : Manuel Goepfert

Contact : metmap@orbifly.com




SOURCES & CREDITS :

   NOAA       Earth
Advisory